createdAt,value
2022-12-27T00:01:18.377Z,6.55
2022-12-27T00:03:45.767Z,6.55
2022-12-27T00:06:15.304Z,6.25
2022-12-27T00:08:43.019Z,6.57
2022-12-27T00:11:11.906Z,5.82
2022-12-27T00:13:39.608Z,5.90
2022-12-27T00:16:08.328Z,7.00
2022-12-27T00:18:35.717Z,5.65
2022-12-27T00:21:03.468Z,5.18
2022-12-27T00:23:40.679Z,5.93
2022-12-27T00:26:11.392Z,5.90
2022-12-27T00:28:38.832Z,5.57
2022-12-27T00:31:06.336Z,5.78
2022-12-27T00:33:34.340Z,5.57
2022-12-27T00:36:02.632Z,5.47
2022-12-27T00:38:29.919Z,5.10
2022-12-27T00:40:57.012Z,8.70
2022-12-27T00:43:24.364Z,5.95
2022-12-27T00:45:51.675Z,5.50
2022-12-27T00:48:18.834Z,5.50
2022-12-27T00:50:46.500Z,5.68
2022-12-27T00:53:13.666Z,5.35
2022-12-27T00:55:43.439Z,5.65
2022-12-27T00:58:10.732Z,5.60
2022-12-27T01:00:37.909Z,5.05
2022-12-27T01:03:05.078Z,5.20
2022-12-27T01:05:32.258Z,4.60
2022-12-27T01:07:59.369Z,6.00
2022-12-27T01:10:26.623Z,5.03
2022-12-27T01:12:54.082Z,4.70
2022-12-27T01:15:21.463Z,5.40
2022-12-27T01:17:48.718Z,5.28
2022-12-27T01:20:15.949Z,5.53
2022-12-27T01:22:43.018Z,5.60
2022-12-27T01:25:10.146Z,5.40
2022-12-27T01:27:37.373Z,5.45
2022-12-27T01:30:07.935Z,5.30
2022-12-27T01:32:35.493Z,5.75
2022-12-27T01:35:02.739Z,5.53
2022-12-27T01:37:30.013Z,6.15
2022-12-27T01:39:57.434Z,6.13
2022-12-27T01:42:42.847Z,6.72
2022-12-27T01:45:17.771Z,6.50
2022-12-27T01:47:57.359Z,5.63
2022-12-27T01:50:39.856Z,6.10
2022-12-27T01:53:06.896Z,7.03
2022-12-27T01:55:46.269Z,6.00
2022-12-27T01:58:13.351Z,5.78
2022-12-27T02:00:44.183Z,5.10
2022-12-27T02:03:12.297Z,5.15
2022-12-27T02:05:41.992Z,5.25
2022-12-27T02:08:12.294Z,5.50
2022-12-27T02:10:40.382Z,4.90
2022-12-27T02:13:08.114Z,4.90
2022-12-27T02:15:36.104Z,4.78
2022-12-27T02:18:03.432Z,4.78
2022-12-27T02:20:35.353Z,4.57
2022-12-27T02:23:39.597Z,4.80
2022-12-27T02:26:19.182Z,5.43
2022-12-27T02:28:52.868Z,5.35
2022-12-27T02:31:25.191Z,6.20
2022-12-27T02:33:53.354Z,7.53
2022-12-27T02:36:26.305Z,7.95
2022-12-27T02:38:55.806Z,6.13
2022-12-27T02:41:41.515Z,7.22
2022-12-27T02:44:27.003Z,10.57
2022-12-27T02:47:13.297Z,10.02
2022-12-27T02:50:00.493Z,11.00
2022-12-27T02:52:49.255Z,12.80
2022-12-27T02:55:22.525Z,13.20
2022-12-27T02:57:52.415Z,12.90
2022-12-27T03:00:39.770Z,11.50
2022-12-27T03:03:21.701Z,12.32
2022-12-27T03:06:16.745Z,12.45
2022-12-27T03:09:06.859Z,10.00
2022-12-27T03:12:05.416Z,9.57
2022-12-27T03:14:56.116Z,9.23
2022-12-27T03:17:30.798Z,8.90
2022-12-27T03:20:19.182Z,8.50
2022-12-27T03:23:05.824Z,9.50
2022-12-27T03:25:35.113Z,9.95
2022-12-27T03:28:25.901Z,10.90
2022-12-27T03:31:16.052Z,11.60
2022-12-27T03:33:43.465Z,15.38
2022-12-27T03:36:34.276Z,11.60
2022-12-27T03:39:01.329Z,9.10
2022-12-27T03:41:50.065Z,8.00
2022-12-27T03:44:26.673Z,9.32
2022-12-27T03:47:01.343Z,9.80
2022-12-27T03:49:35.685Z,9.27
2022-12-27T03:52:11.829Z,8.85
2022-12-27T03:54:43.272Z,9.40
2022-12-27T03:57:12.177Z,7.90
2022-12-27T03:59:39.561Z,7.90
2022-12-27T04:02:07.145Z,6.60
2022-12-27T04:04:34.358Z,6.47
2022-12-27T04:07:01.491Z,6.40
2022-12-27T04:09:47.128Z,6.35
2022-12-27T04:12:32.996Z,5.97
2022-12-27T04:15:18.551Z,5.43
2022-12-27T04:18:04.412Z,5.82
2022-12-27T04:20:50.474Z,5.25
2022-12-27T04:23:36.071Z,4.43
2022-12-27T04:26:21.640Z,4.45
2022-12-27T04:29:07.186Z,4.90
2022-12-27T04:31:52.749Z,4.22
2022-12-27T04:34:38.309Z,4.30
2022-12-27T04:37:05.438Z,4.65
2022-12-27T04:39:33.292Z,4.57
2022-12-27T04:42:19.270Z,4.18
2022-12-27T04:45:06.872Z,4.07
2022-12-27T04:47:55.471Z,4.68
2022-12-27T04:50:46.006Z,4.50
2022-12-27T04:53:34.883Z,5.47
2022-12-27T04:56:02.116Z,6.63
2022-12-27T04:58:29.374Z,6.63
2022-12-27T05:01:16.742Z,8.30
2022-12-27T05:03:45.807Z,9.57
2022-12-27T05:06:13.054Z,7.80
2022-12-27T05:08:59.562Z,6.15
2022-12-27T05:11:45.293Z,6.60
2022-12-27T05:14:14.160Z,7.25
2022-12-27T05:16:42.597Z,7.95
2022-12-27T05:19:10.869Z,8.20
2022-12-27T05:22:01.416Z,8.85
2022-12-27T05:24:46.922Z,10.45
2022-12-27T05:27:14.203Z,10.48
2022-12-27T05:29:41.272Z,9.43
2022-12-27T05:32:13.253Z,10.35
2022-12-27T05:34:41.301Z,6.15
2022-12-27T05:37:08.707Z,7.05
2022-12-27T05:39:35.982Z,5.15
2022-12-27T05:42:03.571Z,4.32
2022-12-27T05:44:30.773Z,4.20
2022-12-27T05:46:57.874Z,4.15
2022-12-27T05:49:24.936Z,3.88
2022-12-27T05:51:52.168Z,4.05
2022-12-27T05:54:19.261Z,3.92
2022-12-27T05:56:46.489Z,3.83
2022-12-27T05:59:13.695Z,3.88
2022-12-27T06:01:40.931Z,3.70
2022-12-27T06:04:08.097Z,4.32
2022-12-27T06:06:35.310Z,4.75
2022-12-27T06:09:02.438Z,4.47
2022-12-27T06:11:29.660Z,4.60
2022-12-27T06:13:56.808Z,4.45
2022-12-27T06:16:24.089Z,4.50
2022-12-27T06:18:53.487Z,3.92
2022-12-27T06:21:21.417Z,3.95
2022-12-27T06:23:48.806Z,3.90
2022-12-27T06:26:20.515Z,3.70
2022-12-27T06:28:49.791Z,3.50
2022-12-27T06:31:20.046Z,4.50
2022-12-27T06:33:48.268Z,3.38
2022-12-27T06:36:16.676Z,5.63
2022-12-27T06:38:44.034Z,10.48
2022-12-27T06:41:13.279Z,10.05
2022-12-27T06:43:40.864Z,10.48
2022-12-27T06:46:15.180Z,11.80
2022-12-27T06:48:48.381Z,10.73
2022-12-27T06:51:16.447Z,12.23
2022-12-27T06:53:46.225Z,12.80
2022-12-27T06:56:14.816Z,14.55
2022-12-27T06:58:41.882Z,18.45
2022-12-27T07:01:09.257Z,18.02
2022-12-27T07:03:37.609Z,17.85
2022-12-27T07:06:08.637Z,17.58
2022-12-27T07:08:36.357Z,15.80
2022-12-27T07:11:08.112Z,15.55
2022-12-27T07:13:36.848Z,15.40
2022-12-27T07:16:05.114Z,15.07
2022-12-27T07:18:33.109Z,13.82
2022-12-27T07:21:00.272Z,17.80
2022-12-27T07:23:27.496Z,17.02
2022-12-27T07:25:54.703Z,17.73
2022-12-27T07:28:21.708Z,16.63
2022-12-27T07:30:48.887Z,12.98
2022-12-27T07:33:16.077Z,13.38
2022-12-27T07:35:45.186Z,16.48
2022-12-27T07:38:12.556Z,20.05
2022-12-27T07:40:39.828Z,20.52
2022-12-27T07:43:07.056Z,21.13
2022-12-27T07:45:35.704Z,21.50
2022-12-27T07:48:02.922Z,24.20
2022-12-27T07:50:30.058Z,24.42
2022-12-27T07:52:57.270Z,25.25
2022-12-27T07:55:24.566Z,24.55
2022-12-27T07:57:51.620Z,21.52
2022-12-27T08:00:19.017Z,21.73
2022-12-27T08:02:47.660Z,20.98
2022-12-27T08:05:14.884Z,22.77
2022-12-27T08:07:42.095Z,22.00
2022-12-27T08:10:10.460Z,22.90
2022-12-27T08:12:37.925Z,21.20
2022-12-27T08:15:05.293Z,19.45
2022-12-27T08:17:32.717Z,20.33
2022-12-27T08:19:59.811Z,22.00
2022-12-27T08:22:27.037Z,22.50
2022-12-27T08:24:55.375Z,23.15
2022-12-27T08:27:24.217Z,23.38
2022-12-27T08:29:51.452Z,23.98
2022-12-27T08:32:18.775Z,24.77
2022-12-27T08:34:45.916Z,24.45
2022-12-27T08:37:13.136Z,24.90
2022-12-27T08:39:40.358Z,26.90
2022-12-27T08:42:07.586Z,29.77
2022-12-27T08:44:34.694Z,31.48
2022-12-27T08:47:01.942Z,27.80
2022-12-27T08:49:28.997Z,27.52
2022-12-27T08:51:57.296Z,25.17
2022-12-27T08:54:25.523Z,24.05
2022-12-27T08:56:52.830Z,26.20
2022-12-27T08:59:20.015Z,22.85
2022-12-27T09:01:47.266Z,22.75
2022-12-27T09:04:14.549Z,28.38
2022-12-27T09:06:42.495Z,24.67
2022-12-27T09:09:09.636Z,27.77
2022-12-27T09:11:36.780Z,28.40
2022-12-27T09:14:05.140Z,25.67
2022-12-27T09:16:34.373Z,25.17
2022-12-27T09:19:01.988Z,27.05
2022-12-27T09:21:30.392Z,35.00
2022-12-27T09:23:57.699Z,28.92
2022-12-27T09:26:30.251Z,29.48
2022-12-27T09:28:58.235Z,33.42
2022-12-27T09:31:25.504Z,33.88
2022-12-27T09:33:53.287Z,31.10
2022-12-27T09:36:25.323Z,32.08
2022-12-27T09:38:53.113Z,32.45
2022-12-27T09:42:44.538Z,33.97
2022-12-27T09:44:44.759Z,33.90
2022-12-27T09:47:11.926Z,40.20
2022-12-27T09:49:46.890Z,44.60
2022-12-27T09:52:35.410Z,43.47
2022-12-27T09:55:06.304Z,38.53
2022-12-27T09:57:39.212Z,37.53
2022-12-27T10:00:35.275Z,36.95
2022-12-27T10:03:04.979Z,34.47
2022-12-27T10:05:34.927Z,29.90
2022-12-27T10:08:13.344Z,28.27
2022-12-27T10:10:40.486Z,26.23
2022-12-27T10:13:26.527Z,26.95
2022-12-27T10:18:30.471Z,23.55
2022-12-27T10:21:12.541Z,27.05
2022-12-27T10:23:42.803Z,31.13
2022-12-27T10:26:20.084Z,30.65
2022-12-27T10:28:53.128Z,28.65
2022-12-27T10:31:24.647Z,27.17
2022-12-27T10:33:52.123Z,27.58
2022-12-27T10:36:21.525Z,27.02
2022-12-27T10:38:48.693Z,26.80
2022-12-27T10:41:15.795Z,25.08
2022-12-27T10:43:44.824Z,25.08
2022-12-27T10:46:13.777Z,24.45
2022-12-27T10:49:11.183Z,18.27
2022-12-27T10:51:33.950Z,18.58
2022-12-27T10:54:05.167Z,18.95
2022-12-27T10:56:34.544Z,21.73
2022-12-27T10:59:04.920Z,29.48
2022-12-27T11:01:35.583Z,40.90
2022-12-27T11:04:19.783Z,41.40
2022-12-27T11:06:52.172Z,44.58
2022-12-27T11:09:24.846Z,41.80
2022-12-27T11:11:52.053Z,41.10
2022-12-27T11:14:20.129Z,45.08
2022-12-27T11:16:49.223Z,53.13
2022-12-27T11:19:27.266Z,52.95
2022-12-27T11:21:55.288Z,51.58
2022-12-27T11:24:22.834Z,48.13
2022-12-27T11:26:54.346Z,48.60
2022-12-27T11:29:22.992Z,46.63
2022-12-27T11:31:50.955Z,46.80
2022-12-27T11:34:19.408Z,45.17
2022-12-27T11:36:48.302Z,38.50
2022-12-27T11:39:34.300Z,38.28
2022-12-27T11:44:40.886Z,36.90
2022-12-27T11:47:07.965Z,37.55
2022-12-27T11:49:40.596Z,35.83
2022-12-27T11:52:07.734Z,33.78
2022-12-27T11:54:40.840Z,33.47
2022-12-27T11:57:21.321Z,31.35
2022-12-27T11:59:48.351Z,35.50
2022-12-27T12:02:21.582Z,34.25
2022-12-27T12:04:48.703Z,34.88
2022-12-27T12:07:24.858Z,35.00
2022-12-27T12:09:52.194Z,34.22
2022-12-27T12:12:19.339Z,34.15
2022-12-27T12:15:01.347Z,35.13
2022-12-27T12:17:36.373Z,35.75
2022-12-27T12:20:22.251Z,39.33
2022-12-27T12:22:59.441Z,40.70
2022-12-27T12:25:32.797Z,41.75
2022-12-27T12:28:55.572Z,41.20
2022-12-27T12:31:24.378Z,40.15
2022-12-27T12:33:51.649Z,40.35
2022-12-27T12:36:27.998Z,42.90
2022-12-27T12:39:02.134Z,47.28
2022-12-27T12:41:29.283Z,45.80
2022-12-27T12:44:15.440Z,43.45
2022-12-27T12:46:58.183Z,43.33
2022-12-27T12:49:44.422Z,45.97
2022-12-27T12:52:23.715Z,43.90
2022-12-27T12:55:09.343Z,44.78
2022-12-27T12:57:54.999Z,39.13
2022-12-27T13:00:31.178Z,48.92
2022-12-27T13:03:13.745Z,49.55
2022-12-27T13:05:47.537Z,50.45
2022-12-27T13:08:28.242Z,53.00
2022-12-27T13:11:01.984Z,53.63
2022-12-27T13:13:52.438Z,47.90
2022-12-27T13:16:26.015Z,48.83
2022-12-27T13:19:11.674Z,47.83
2022-12-27T13:21:57.306Z,48.55
2022-12-27T13:24:35.780Z,48.45
2022-12-27T13:27:21.891Z,49.58
2022-12-27T13:32:35.368Z,49.08
2022-12-27T13:35:07.459Z,38.00
2022-12-27T13:37:44.892Z,34.70
2022-12-27T13:40:23.575Z,36.78
2022-12-27T13:43:06.085Z,36.80
2022-12-27T13:45:33.270Z,35.33
2022-12-27T13:48:09.564Z,34.60
2022-12-27T13:50:55.533Z,29.65
2022-12-27T13:56:05.925Z,30.25
2022-12-27T13:58:46.409Z,25.20
2022-12-27T14:01:29.071Z,21.92
2022-12-27T14:04:15.304Z,18.58
2022-12-27T14:09:21.023Z,16.50
2022-12-27T14:11:51.255Z,16.38
2022-12-27T14:14:19.508Z,17.80
2022-12-27T14:16:53.242Z,15.75
2022-12-27T14:19:41.770Z,14.25
2022-12-27T14:22:27.196Z,15.02
2022-12-27T14:25:26.908Z,11.88
2022-12-27T14:28:12.726Z,12.05
2022-12-27T14:31:06.115Z,12.68
2022-12-27T14:33:39.299Z,12.40
2022-12-27T14:36:24.939Z,11.68
2022-12-27T14:39:01.756Z,13.30
2022-12-27T14:41:45.941Z,11.98
2022-12-27T14:44:31.755Z,11.70
2022-12-27T14:47:07.691Z,12.25
2022-12-27T14:49:52.138Z,11.95
2022-12-27T14:52:22.180Z,11.80
2022-12-27T14:55:18.677Z,13.20
2022-12-27T14:57:57.187Z,12.48
2022-12-27T15:00:25.296Z,14.02
2022-12-27T15:02:53.035Z,13.52
2022-12-27T15:05:20.404Z,13.75
2022-12-27T15:08:13.694Z,15.02
2022-12-27T15:10:43.773Z,17.45
2022-12-27T15:13:26.290Z,19.63
2022-12-27T15:15:59.365Z,20.13
2022-12-27T15:18:39.581Z,21.55
2022-12-27T15:21:12.803Z,22.10
2022-12-27T15:23:42.933Z,21.80
2022-12-27T15:26:10.091Z,23.92
2022-12-27T15:28:37.223Z,24.10
2022-12-27T15:31:04.352Z,25.50
2022-12-27T15:33:37.683Z,26.50
2022-12-27T15:36:04.998Z,28.67
2022-12-27T15:38:39.565Z,30.05
2022-12-27T15:41:09.782Z,46.85
2022-12-27T15:43:39.998Z,44.83
2022-12-27T15:46:30.992Z,40.70
2022-12-27T15:49:19.599Z,36.47
2022-12-27T15:51:54.748Z,38.25
2022-12-27T15:54:32.380Z,33.83
2022-12-27T15:57:00.055Z,33.15
2022-12-27T15:59:46.175Z,36.33
2022-12-27T16:04:46.529Z,37.78
2022-12-27T16:07:32.331Z,41.78
2022-12-27T16:09:59.548Z,44.88
2022-12-27T16:12:37.795Z,53.85
2022-12-27T16:15:23.426Z,55.95
2022-12-27T16:17:59.353Z,60.70
2022-12-27T16:20:26.700Z,52.13
2022-12-27T16:23:04.588Z,54.47
2022-12-27T16:25:33.533Z,54.72
2022-12-27T16:28:20.079Z,62.25
2022-12-27T16:30:51.184Z,68.00
2022-12-27T16:33:22.977Z,65.20
2022-12-27T16:36:05.713Z,66.35
2022-12-27T16:38:34.379Z,68.65
2022-12-27T16:41:20.091Z,68.50
2022-12-27T16:44:06.054Z,67.38
2022-12-27T16:46:45.401Z,76.68
2022-12-27T16:49:15.854Z,86.22
2022-12-27T16:52:03.369Z,82.68
2022-12-27T16:54:37.052Z,83.38
2022-12-27T16:57:36.642Z,81.18
2022-12-27T17:00:22.249Z,78.65
2022-12-27T17:02:49.467Z,73.75
2022-12-27T17:05:16.653Z,72.65
2022-12-27T17:07:43.758Z,61.85
2022-12-27T17:10:26.287Z,63.80
2022-12-27T17:13:12.243Z,58.28
2022-12-27T17:15:44.888Z,49.78
2022-12-27T17:18:24.557Z,46.63
2022-12-27T17:20:58.755Z,35.90
2022-12-27T17:23:25.858Z,34.80
2022-12-27T17:26:11.948Z,38.00
2022-12-27T17:31:08.881Z,37.00
2022-12-27T17:33:36.140Z,29.95
2022-12-27T17:36:09.587Z,32.22
2022-12-27T17:38:42.561Z,29.98
2022-12-27T17:41:47.784Z,26.45
2022-12-27T17:44:40.618Z,22.92
2022-12-27T17:47:40.254Z,20.42
2022-12-27T17:50:12.691Z,22.48
2022-12-27T17:52:58.106Z,21.58
2022-12-27T17:55:45.720Z,22.20
2022-12-27T17:58:14.426Z,22.17
2022-12-27T18:00:50.465Z,21.90
2022-12-27T18:03:17.936Z,22.55
2022-12-27T18:05:45.978Z,24.48
2022-12-27T18:08:30.643Z,24.60
2022-12-27T18:10:58.575Z,29.75
2022-12-27T18:13:26.939Z,30.08
2022-12-27T18:15:54.975Z,27.17
2022-12-27T18:18:32.756Z,31.67
2022-12-27T18:21:01.309Z,38.13
2022-12-27T18:23:28.580Z,43.65
2022-12-27T18:26:15.251Z,48.55
2022-12-27T18:28:43.048Z,46.20
2022-12-27T18:31:13.371Z,42.28
2022-12-27T18:33:55.337Z,38.83
2022-12-27T18:36:28.922Z,25.30
2022-12-27T18:38:58.889Z,26.33
2022-12-27T18:41:26.655Z,26.27
2022-12-27T18:44:03.641Z,22.98
2022-12-27T18:46:32.649Z,21.08
2022-12-27T18:49:00.424Z,22.45
2022-12-27T18:51:35.047Z,20.98
2022-12-27T18:54:02.656Z,21.27
2022-12-27T18:56:34.718Z,21.17
2022-12-27T18:59:03.923Z,21.88
2022-12-27T19:01:37.239Z,20.40
2022-12-27T19:04:24.472Z,22.30
2022-12-27T19:06:55.866Z,22.80
2022-12-27T19:09:24.900Z,20.92
2022-12-27T19:12:00.150Z,21.30
2022-12-27T19:14:31.761Z,23.10
2022-12-27T19:17:01.092Z,22.40
2022-12-27T19:19:31.281Z,23.55
2022-12-27T19:21:59.952Z,23.08
2022-12-27T19:24:31.099Z,26.95
2022-12-27T19:27:03.514Z,24.10
2022-12-27T19:29:35.217Z,25.33
2022-12-27T19:32:07.703Z,27.05
2022-12-27T19:34:48.687Z,28.55
2022-12-27T19:37:16.302Z,30.58
2022-12-27T19:39:45.896Z,31.25
2022-12-27T19:42:16.421Z,29.98
2022-12-27T19:44:43.591Z,30.20
2022-12-27T19:47:14.636Z,29.35
2022-12-27T19:49:44.348Z,26.15
2022-12-27T19:52:15.617Z,23.42
2022-12-27T19:54:42.910Z,23.95
2022-12-27T19:57:12.681Z,25.25
2022-12-27T19:59:39.936Z,25.27
2022-12-27T20:02:07.624Z,24.33
2022-12-27T20:04:34.879Z,22.73
2022-12-27T20:07:02.770Z,19.95
2022-12-27T20:09:30.180Z,21.70
2022-12-27T20:11:57.418Z,21.63
2022-12-27T20:14:24.649Z,24.15
2022-12-27T20:16:51.830Z,24.00
2022-12-27T20:19:20.445Z,23.05
2022-12-27T20:21:47.840Z,22.30
2022-12-27T20:24:15.214Z,22.30
2022-12-27T20:26:42.827Z,22.48
2022-12-27T20:29:10.479Z,23.25
2022-12-27T20:31:44.149Z,24.92
2022-12-27T20:34:13.118Z,24.93
2022-12-27T20:36:40.314Z,22.45
2022-12-27T20:39:07.580Z,23.98
2022-12-27T20:41:35.330Z,21.98
2022-12-27T20:44:02.552Z,22.65
2022-12-27T20:46:29.835Z,23.35
2022-12-27T20:48:57.075Z,25.80
2022-12-27T20:51:27.984Z,25.75
2022-12-27T20:53:56.470Z,24.83
2022-12-27T20:56:24.077Z,27.63
2022-12-27T20:58:51.345Z,29.52
2022-12-27T21:01:19.772Z,33.72
2022-12-27T21:03:47.200Z,33.10
2022-12-27T21:06:19.057Z,27.88
2022-12-27T21:08:52.142Z,27.00
2022-12-27T21:11:22.880Z,27.90
2022-12-27T21:13:50.251Z,20.70
2022-12-27T21:16:19.306Z,18.60
2022-12-27T21:18:48.103Z,20.25
2022-12-27T21:21:19.054Z,24.45
2022-12-27T21:23:47.055Z,21.52
2022-12-27T21:26:18.549Z,22.58
2022-12-27T21:28:45.821Z,23.20
2022-12-27T21:31:15.866Z,25.27
2022-12-27T21:33:43.438Z,26.75
2022-12-27T21:36:21.625Z,26.23
2022-12-27T21:38:49.206Z,30.55
2022-12-27T21:41:26.525Z,26.65
2022-12-27T21:43:54.031Z,26.15
2022-12-27T21:46:25.452Z,24.77
2022-12-27T21:48:56.839Z,24.25
2022-12-27T21:51:24.219Z,22.60
2022-12-27T21:53:51.392Z,23.40
2022-12-27T21:56:18.684Z,23.58
2022-12-27T21:58:46.258Z,22.95
2022-12-27T22:01:21.513Z,22.90
2022-12-27T22:03:50.512Z,22.05
2022-12-27T22:06:19.478Z,22.48
2022-12-27T22:08:47.645Z,23.10
2022-12-27T22:11:15.586Z,20.20
2022-12-27T22:13:43.541Z,18.95
2022-12-27T22:16:18.521Z,18.15
2022-12-27T22:18:45.919Z,17.92
2022-12-27T22:21:15.040Z,16.60
2022-12-27T22:23:43.915Z,17.35
2022-12-27T22:26:27.909Z,17.00
2022-12-27T22:28:55.184Z,14.45
2022-12-27T22:31:23.742Z,14.57
2022-12-27T22:33:51.579Z,13.38
2022-12-27T22:36:21.054Z,12.90
2022-12-27T22:38:50.520Z,12.70
2022-12-27T22:41:36.743Z,13.52
2022-12-27T22:46:51.019Z,12.52
2022-12-27T22:49:18.628Z,13.32
2022-12-27T22:51:45.929Z,11.80
2022-12-27T22:54:13.294Z,14.68
2022-12-27T22:56:41.260Z,13.48
2022-12-27T22:59:10.455Z,14.90
2022-12-27T23:01:37.861Z,14.48
2022-12-27T23:04:06.127Z,14.93
2022-12-27T23:06:34.579Z,16.50
2022-12-27T23:09:02.220Z,16.20
2022-12-27T23:11:30.885Z,15.00
2022-12-27T23:13:59.749Z,12.75
2022-12-27T23:16:28.408Z,11.80
2022-12-27T23:18:55.741Z,9.27
2022-12-27T23:21:24.713Z,9.02
2022-12-27T23:23:52.731Z,9.00
2022-12-27T23:26:21.372Z,9.55
2022-12-27T23:28:49.254Z,9.30
2022-12-27T23:31:16.860Z,8.68
2022-12-27T23:33:44.251Z,8.32
2022-12-27T23:36:11.958Z,8.50
2022-12-27T23:38:39.512Z,9.02
2022-12-27T23:41:07.333Z,9.57
2022-12-27T23:43:52.064Z,9.13
2022-12-27T23:46:24.802Z,9.75
2022-12-27T23:48:52.195Z,9.35
2022-12-27T23:51:19.357Z,10.10
2022-12-27T23:53:46.558Z,10.88
2022-12-27T23:56:23.709Z,10.65
2022-12-27T23:58:52.683Z,9.02
